Time;durP1;ratioP1;P1;durP2;ratioP2;P2;SDS_P1;SDS_P2;PMS_P1;PMS_P2;Temp;Humidity;BMP_temperature;BMP_pressure;BME280_temperature;BME280_humidity;BME280_pressure;Samples;Min_cycle;Max_cycle;Signal;HPM_P1;HPM_P2
2022/03/10 00:00:18;;;;;;;1.42;1.38;;;7.10;51.10;;;;;;5012584;28;20196;-75
2022/03/10 00:02:45;;;;;;;0.50;0.40;;;7.10;51.30;;;;;;5011523;28;20236;-76
2022/03/10 00:05:12;;;;;;;1.88;1.75;;;7.10;51.40;;;;;;5013432;28;20199;-76
2022/03/10 00:07:40;;;;;;;0.80;0.80;;;7.10;51.60;;;;;;5012609;28;20196;-76
2022/03/10 00:10:08;;;;;;;0.50;0.50;;;7.10;51.50;;;;;;5012560;28;20199;-76
2022/03/10 00:12:35;;;;;;;0.60;0.60;;;7.10;51.40;;;;;;5011729;28;20197;-75
2022/03/10 00:15:04;;;;;;;0.50;0.50;;;7.20;51.30;;;;;;5012593;28;20196;-76
2022/03/10 00:17:31;;;;;;;1.33;1.25;;;7.10;51.40;;;;;;5013144;28;20215;-76
2022/03/10 00:19:57;;;;;;;1.48;1.40;;;7.10;51.30;;;;;;5012186;28;20227;-76
2022/03/10 00:22:24;;;;;;;1.85;1.05;;;7.10;51.20;;;;;;5012999;28;20200;-76
2022/03/10 00:24:52;;;;;;;0.50;0.50;;;7.20;51.20;;;;;;5012669;28;20204;-76
2022/03/10 00:27:19;;;;;;;0.50;0.40;;;7.20;51.20;;;;;;5012553;28;20188;-76
2022/03/10 00:29:46;;;;;;;1.00;0.88;;;7.10;51.20;;;;;;5012133;28;20238;-76
2022/03/10 00:32:13;;;;;;;1.85;1.50;;;7.10;51.80;;;;;;5012818;28;20203;-76
2022/03/10 00:34:39;;;;;;;0.50;0.40;;;7.10;51.50;;;;;;5012816;28;20207;-76
2022/03/10 00:37:06;;;;;;;1.40;1.30;;;6.90;51.70;;;;;;5013035;28;20220;-76
2022/03/10 00:39:33;;;;;;;0.50;0.40;;;6.80;52.70;;;;;;5011438;28;20226;-76
2022/03/10 00:42:01;;;;;;;0.50;0.40;;;6.70;52.50;;;;;;5012833;28;20192;-75
2022/03/10 00:44:30;;;;;;;0.50;0.40;;;6.60;52.00;;;;;;5012412;28;20210;-76
2022/03/10 00:46:56;;;;;;;10.32;9.88;;;6.60;52.10;;;;;;5012180;28;20196;-76
2022/03/10 00:49:23;;;;;;;0.50;0.40;;;6.60;52.30;;;;;;5011556;28;20219;-76
2022/03/10 00:51:50;;;;;;;0.50;0.40;;;6.60;52.20;;;;;;5012263;28;20203;-75
2022/03/10 00:54:18;;;;;;;0.77;0.77;;;6.70;52.20;;;;;;5012200;28;20210;-76
2022/03/10 00:56:44;;;;;;;0.50;0.40;;;6.60;52.30;;;;;;5012859;28;20286;-76
2022/03/10 00:59:12;;;;;;;0.50;0.40;;;6.50;52.50;;;;;;5012181;28;20224;-77
2022/03/10 01:01:39;;;;;;;2.97;2.88;;;6.50;52.60;;;;;;5012508;28;20192;-76
2022/03/10 01:04:06;;;;;;;0.50;0.40;;;6.50;52.70;;;;;;5011311;28;20207;-75
2022/03/10 01:06:32;;;;;;;0.80;0.65;;;6.50;52.70;;;;;;5012390;28;20203;-75
2022/03/10 01:08:59;;;;;;;0.80;0.80;;;6.60;52.90;;;;;;5011574;28;20567;-76
2022/03/10 01:11:26;;;;;;;0.50;0.40;;;6.60;52.90;;;;;;5012486;28;20200;-75
2022/03/10 01:13:52;;;;;;;0.70;0.70;;;6.70;52.80;;;;;;5012153;28;20566;-76
2022/03/10 01:16:20;;;;;;;2.10;1.30;;;6.70;52.90;;;;;;5012354;28;20204;-75
2022/03/10 01:18:47;;;;;;;3.63;3.10;;;6.70;53.20;;;;;;5011753;28;20694;-75
2022/03/10 01:21:14;;;;;;;3.25;3.13;;;6.70;53.50;;;;;;5012053;28;20204;-75
2022/03/10 01:23:41;;;;;;;2.35;1.60;;;6.70;53.40;;;;;;5012224;28;20200;-75
2022/03/10 01:26:08;;;;;;;0.60;0.50;;;6.70;53.50;;;;;;5012161;28;20219;-76
2022/03/10 01:28:34;;;;;;;0.50;0.45;;;6.80;53.60;;;;;;5012117;28;20215;-75
2022/03/10 01:31:01;;;;;;;1.55;1.45;;;6.70;53.60;;;;;;5011223;28;20199;-75
2022/03/10 01:33:30;;;;;;;0.98;0.88;;;6.70;53.70;;;;;;5012398;28;20685;-75
2022/03/10 01:35:56;;;;;;;1.35;1.35;;;6.80;53.70;;;;;;5012068;28;20216;-77
2022/03/10 01:38:23;;;;;;;0.50;0.50;;;6.80;53.70;;;;;;5013006;28;20219;-75
2022/03/10 01:40:50;;;;;;;1.75;1.65;;;6.80;53.70;;;;;;5011573;28;20206;-75
2022/03/10 01:43:16;;;;;;;0.50;0.40;;;6.80;53.70;;;;;;5012113;28;20658;-76
2022/03/10 01:45:43;;;;;;;0.50;0.40;;;6.80;53.80;;;;;;5012449;28;20208;-77
2022/03/10 01:48:10;;;;;;;3.28;2.65;;;6.80;53.90;;;;;;5012048;28;20216;-75
2022/03/10 01:50:38;;;;;;;3.00;1.13;;;6.80;53.90;;;;;;5011375;28;20242;-76
2022/03/10 01:53:05;;;;;;;2.55;0.95;;;6.80;54.10;;;;;;5012307;28;20200;-75
2022/03/10 01:55:32;;;;;;;0.50;0.43;;;6.80;54.30;;;;;;5011987;28;20196;-75
2022/03/10 01:57:59;;;;;;;1.77;1.60;;;6.80;54.30;;;;;;5011972;28;20227;-75
2022/03/10 02:00:26;;;;;;;1.20;1.20;;;6.80;54.40;;;;;;5011027;28;20704;-76
2022/03/10 02:02:53;;;;;;;0.50;0.40;;;6.80;54.60;;;;;;5010515;28;20199;-75
2022/03/10 02:05:20;;;;;;;0.65;0.65;;;6.70;54.80;;;;;;5014874;28;20685;-75
2022/03/10 02:10:34;;;;;;;0.50;0.40;;;6.60;55.30;;;;;;5015078;28;20295;-76
2022/03/10 02:13:00;;;;;;;0.80;0.80;;;6.60;55.50;;;;;;5015279;28;20684;-76
2022/03/10 02:18:14;;;;;;;0.70;0.60;;;6.70;55.70;;;;;;5015353;28;20728;-75
2022/03/10 02:20:42;;;;;;;0.60;0.57;;;6.70;56.50;;;;;;5014374;28;20200;-76
2022/03/10 02:23:11;;;;;;;0.50;0.40;;;6.80;56.00;;;;;;5015652;28;20202;-76
2022/03/10 02:25:39;;;;;;;0.50;0.40;;;6.70;55.90;;;;;;5014964;28;20192;-75
2022/03/10 02:28:06;;;;;;;2.33;2.15;;;6.80;56.20;;;;;;5015115;28;20235;-76
2022/03/10 02:30:34;;;;;;;0.50;0.40;;;6.70;56.30;;;;;;5014467;28;20223;-76
2022/03/10 02:33:01;;;;;;;2.42;2.22;;;6.60;56.50;;;;;;5015416;28;20565;-75
2022/03/10 02:35:28;;;;;;;0.50;0.40;;;6.50;57.10;;;;;;5015269;28;20203;-76
2022/03/10 02:37:56;;;;;;;7.38;7.03;;;6.30;57.60;;;;;;5014616;28;20869;-76
2022/03/10 02:40:25;;;;;;;5.45;2.50;;;5.90;58.10;;;;;;5014352;28;20621;-76
2022/03/10 02:42:52;;;;;;;0.50;0.40;;;5.80;58.90;;;;;;5015162;28;20192;-76
2022/03/10 02:45:18;;;;;;;0.50;0.40;;;5.70;58.90;;;;;;5015207;28;20202;-77
2022/03/10 02:47:45;;;;;;;3.83;3.63;;;5.70;59.10;;;;;;5014440;28;20226;-75
2022/03/10 02:50:12;;;;;;;0.50;0.40;;;5.80;59.10;;;;;;5014517;28;20586;-75
2022/03/10 02:52:40;;;;;;;0.50;0.40;;;5.80;59.10;;;;;;5015092;28;20206;-75
2022/03/10 02:55:08;;;;;;;0.50;0.40;;;5.80;59.10;;;;;;5014872;28;20203;-75
2022/03/10 02:57:38;;;;;;;0.50;0.40;;;5.80;59.40;;;;;;5014562;28;20700;-76
2022/03/10 03:00:08;;;;;;;0.50;0.40;;;5.90;59.30;;;;;;5014089;28;20258;-76
2022/03/10 03:02:35;;;;;;;0.93;0.93;;;6.00;59.20;;;;;;5014599;28;20559;-74
2022/03/10 03:05:01;;;;;;;0.50;0.50;;;6.00;59.20;;;;;;5013459;28;20206;-76
2022/03/10 03:07:28;;;;;;;0.50;0.40;;;6.10;58.90;;;;;;5014647;28;20199;-74
2022/03/10 03:09:55;;;;;;;8.13;7.65;;;6.00;59.00;;;;;;5017267;28;20191;-76
2022/03/10 03:12:22;;;;;;;0.50;0.40;;;6.00;59.00;;;;;;5028309;28;20194;-75
2022/03/10 03:14:50;;;;;;;0.50;0.40;;;6.00;59.10;;;;;;5022387;28;20207;-76
2022/03/10 03:17:16;;;;;;;0.50;0.40;;;6.00;59.30;;;;;;5014896;28;20196;-78
2022/03/10 03:19:43;;;;;;;1.90;1.50;;;5.90;59.80;;;;;;5013485;28;20227;-77
2022/03/10 03:22:10;;;;;;;0.50;0.40;;;5.90;59.70;;;;;;5015334;28;20255;-75
2022/03/10 03:24:37;;;;;;;2.78;2.67;;;5.90;59.60;;;;;;5015208;28;20202;-76
2022/03/10 03:27:04;;;;;;;0.80;0.80;;;5.90;59.70;;;;;;5020051;28;20195;-76
2022/03/10 03:29:31;;;;;;;0.50;0.40;;;5.80;60.00;;;;;;5033324;28;20226;-75
2022/03/10 03:31:59;;;;;;;0.60;0.60;;;5.80;59.60;;;;;;5034013;28;20203;-76
2022/03/10 03:34:25;;;;;;;1.05;1.05;;;5.90;59.50;;;;;;5033995;28;20506;-75
2022/03/10 03:36:52;;;;;;;1.50;1.40;;;5.90;59.40;;;;;;5039696;28;20195;-75
2022/03/10 03:39:19;;;;;;;2.25;2.15;;;6.00;59.30;;;;;;5033949;28;20596;-76
2022/03/10 03:41:46;;;;;;;0.60;0.60;;;5.90;59.20;;;;;;5033311;28;20235;-76
2022/03/10 03:44:13;;;;;;;1.92;1.83;;;5.90;59.60;;;;;;5033834;28;20683;-77
2022/03/10 03:46:40;;;;;;;0.50;0.40;;;5.90;59.70;;;;;;5033911;28;20195;-74
2022/03/10 03:49:08;;;;;;;0.50;0.40;;;5.60;60.70;;;;;;5033139;28;20219;-76
2022/03/10 03:51:35;;;;;;;2.60;2.40;;;5.50;62.00;;;;;;5033486;28;20692;-75
2022/03/10 03:54:02;;;;;;;0.50;0.40;;;5.40;62.60;;;;;;5033533;28;20206;-76
2022/03/10 03:56:29;;;;;;;0.50;0.40;;;5.20;64.00;;;;;;5033489;28;20191;-76
2022/03/10 03:58:55;;;;;;;0.50;0.40;;;4.90;65.70;;;;;;5032414;28;20222;-76
2022/03/10 04:01:23;;;;;;;0.50;0.40;;;4.80;66.90;;;;;;5033676;28;20194;-76
2022/03/10 04:03:50;;;;;;;0.50;0.40;;;4.70;68.50;;;;;;5031550;28;20199;-75
2022/03/10 04:06:19;;;;;;;0.50;0.40;;;4.60;68.70;;;;;;5033766;28;20194;-76
2022/03/10 04:08:45;;;;;;;0.50;0.40;;;4.50;72.30;;;;;;5033082;28;20216;-74
2022/03/10 04:11:13;;;;;;;0.50;0.40;;;4.40;74.20;;;;;;5033283;28;20576;-76
2022/03/10 04:13:41;;;;;;;0.50;0.40;;;4.30;74.60;;;;;;5033653;28;20206;-76
2022/03/10 04:16:08;;;;;;;0.50;0.40;;;4.20;76.60;;;;;;5032688;28;20202;-75
2022/03/10 04:18:35;;;;;;;0.50;0.40;;;4.10;79.40;;;;;;5033316;28;20226;-76
2022/03/10 04:21:02;;;;;;;0.93;0.90;;;3.90;82.40;;;;;;5032650;28;20201;-75
2022/03/10 04:23:31;;;;;;;0.50;0.40;;;3.70;86.90;;;;;;5032968;28;20210;-75
2022/03/10 04:25:58;;;;;;;0.50;0.50;;;3.60;89.80;;;;;;5032735;28;20257;-75
2022/03/10 04:28:25;;;;;;;5.47;2.88;;;3.50;92.20;;;;;;5032962;28;20585;-75
2022/03/10 04:30:51;;;;;;;0.50;0.40;;;3.40;94.30;;;;;;5030065;28;20192;-76
2022/03/10 04:33:18;;;;;;;0.70;0.70;;;3.30;95.70;;;;;;5032500;28;20688;-75
2022/03/10 04:35:45;;;;;;;0.88;0.88;;;3.30;97.50;;;;;;5033176;28;20198;-75
2022/03/10 04:38:12;;;;;;;0.50;0.40;;;3.40;97.10;;;;;;5032780;28;20321;-75
2022/03/10 04:40:40;;;;;;;0.60;0.57;;;3.40;97.20;;;;;;5032842;28;20179;-75
2022/03/10 04:43:07;;;;;;;0.77;0.77;;;3.40;96.90;;;;;;5033456;28;20199;-76
2022/03/10 04:45:35;;;;;;;0.50;0.43;;;3.50;97.20;;;;;;5033475;28;20197;-75
2022/03/10 04:48:03;;;;;;;0.50;0.40;;;3.60;95.00;;;;;;5036491;28;20208;-75
2022/03/10 04:50:30;;;;;;;4.03;3.83;;;3.80;93.60;;;;;;5034790;28;20256;-75
2022/03/10 04:52:56;;;;;;;0.50;0.40;;;3.90;93.40;;;;;;5034324;28;20198;-75
2022/03/10 04:55:23;;;;;;;0.88;0.88;;;4.00;92.10;;;;;;5033526;28;20194;-75
2022/03/10 04:57:51;;;;;;;3.72;1.52;;;4.40;90.60;;;;;;5032976;28;20708;-75
2022/03/10 05:00:19;;;;;;;0.50;0.40;;;4.60;89.70;;;;;;5040367;28;20207;-75
2022/03/10 05:02:47;;;;;;;0.60;0.60;;;4.70;88.10;;;;;;5044863;28;20267;-75
2022/03/10 05:05:14;;;;;;;1.27;1.20;;;4.80;87.60;;;;;;5040546;28;20206;-75
2022/03/10 05:07:41;;;;;;;10.27;9.50;;;4.80;87.60;;;;;;5034521;28;20240;-76
2022/03/10 05:10:09;;;;;;;0.50;0.40;;;4.80;86.60;;;;;;5033811;28;20198;-77
2022/03/10 05:12:44;;;;;;;5.72;2.35;;;4.80;86.60;;;;;;5036741;28;20205;-76
2022/03/10 05:15:13;;;;;;;3.83;2.80;;;4.80;87.80;;;;;;5042468;28;20624;-78
2022/03/10 05:17:39;;;;;;;0.50;0.40;;;4.80;86.60;;;;;;5044683;28;20199;-76
2022/03/10 05:20:08;;;;;;;0.50;0.40;;;4.90;85.80;;;;;;5046568;28;20207;-77
2022/03/10 05:22:45;;;;;;;0.50;0.50;;;4.90;85.20;;;;;;5051451;28;20271;-77
2022/03/10 05:25:13;;;;;;;3.72;3.53;;;5.10;84.60;;;;;;5053154;28;20202;-77
2022/03/10 05:27:39;;;;;;;2.50;1.63;;;5.10;84.00;;;;;;5052465;28;20199;-77
2022/03/10 05:30:07;;;;;;;0.50;0.50;;;5.30;83.80;;;;;;5047578;28;20727;-76
2022/03/10 05:32:35;;;;;;;0.50;0.40;;;5.40;82.70;;;;;;5046448;28;20258;-76
2022/03/10 05:35:03;;;;;;;4.57;1.83;;;5.40;81.50;;;;;;5050958;28;20195;-75
2022/03/10 05:37:30;;;;;;;3.92;3.63;;;5.60;80.20;;;;;;5052611;28;20199;-76
2022/03/10 05:39:57;;;;;;;0.50;0.40;;;5.70;79.70;;;;;;5051766;28;20217;-76
2022/03/10 05:42:24;;;;;;;0.50;0.40;;;5.60;79.30;;;;;;5054671;28;20199;-76
2022/03/10 05:44:50;;;;;;;8.02;7.65;;;5.60;79.40;;;;;;5055884;28;20198;-76
2022/03/10 05:47:17;;;;;;;0.60;0.60;;;5.60;79.60;;;;;;5056361;28;20203;-76
2022/03/10 05:49:45;;;;;;;0.50;0.50;;;5.40;81.30;;;;;;5055489;28;20211;-77
2022/03/10 05:52:12;;;;;;;0.50;0.40;;;5.20;83.00;;;;;;5055627;28;20206;-76
2022/03/10 05:54:38;;;;;;;0.50;0.40;;;5.10;88.00;;;;;;5056537;28;20179;-77
2022/03/10 05:57:05;;;;;;;0.50;0.40;;;4.90;88.60;;;;;;5057131;28;20202;-77
2022/03/10 05:59:32;;;;;;;0.50;0.40;;;4.60;88.80;;;;;;5059122;28;20229;-76
2022/03/10 06:01:58;;;;;;;0.50;0.40;;;4.40;91.10;;;;;;5058040;28;20205;-77
2022/03/10 06:04:25;;;;;;;0.50;0.40;;;4.20;92.60;;;;;;5038564;28;20703;-77
2022/03/10 06:06:53;;;;;;;0.70;0.70;;;4.00;95.90;;;;;;5038335;28;20206;-77
2022/03/10 06:09:20;;;;;;;0.50;0.40;;;3.80;99.90;;;;;;5037599;28;20211;-76
2022/03/10 06:11:47;;;;;;;0.50;0.40;;;3.70;99.90;;;;;;5038189;28;20220;-77
2022/03/10 06:14:14;;;;;;;0.50;0.40;;;3.60;99.90;;;;;;5039399;28;20204;-76
2022/03/10 06:16:40;;;;;;;0.50;0.40;;;3.40;99.90;;;;;;5041614;28;20194;-77
2022/03/10 06:19:08;;;;;;;0.50;0.45;;;3.40;99.90;;;;;;5041289;28;20219;-76
2022/03/10 06:21:35;;;;;;;0.50;0.40;;;3.40;99.90;;;;;;5041050;28;20202;-77
2022/03/10 06:24:03;;;;;;;0.50;0.40;;;3.40;99.90;;;;;;5037303;28;20206;-77
2022/03/10 06:26:30;;;;;;;0.50;0.40;;;3.40;99.90;;;;;;5037059;28;20218;-77
2022/03/10 06:28:56;;;;;;;0.50;0.40;;;3.80;99.90;;;;;;5036415;28;20218;-77
2022/03/10 06:31:24;;;;;;;0.50;0.40;;;4.10;99.90;;;;;;5037970;28;20593;-76
2022/03/10 06:33:51;;;;;;;4.13;3.92;;;4.40;99.90;;;;;;5037047;28;20195;-78
2022/03/10 06:36:18;;;;;;;0.50;0.40;;;4.80;99.90;;;;;;5038531;28;20191;-76
2022/03/10 06:38:45;;;;;;;0.50;0.40;;;5.00;99.90;;;;;;5037653;28;20230;-77
2022/03/10 06:41:13;;;;;;;0.50;0.40;;;5.00;99.90;;;;;;5037218;28;20583;-77
2022/03/10 06:43:39;;;;;;;3.55;2.35;;;5.00;99.90;;;;;;5045784;28;20207;-77
2022/03/10 06:46:06;;;;;;;0.50;0.40;;;5.10;99.90;;;;;;5048870;28;20209;-76
2022/03/10 06:48:34;;;;;;;2.92;2.72;;;5.20;99.90;;;;;;5047190;28;20732;-76
2022/03/10 06:51:01;;;;;;;0.50;0.40;;;5.40;99.90;;;;;;5045967;28;20195;-77
2022/03/10 06:53:28;;;;;;;0.50;0.40;;;5.60;99.90;;;;;;5039531;28;20191;-76
2022/03/10 06:55:55;;;;;;;1.33;1.25;;;5.80;99.90;;;;;;5051751;28;20199;-76
2022/03/10 06:58:24;;;;;;;1.98;1.88;;;6.00;99.90;;;;;;5051848;28;20274;-76
2022/03/10 07:00:50;;;;;;;0.50;0.40;;;6.20;99.90;;;;;;5051705;28;20216;-77
2022/03/10 07:03:19;;;;;;;0.50;0.40;;;6.50;99.90;;;;;;5052330;28;20183;-76
2022/03/10 07:05:46;;;;;;;0.50;0.40;;;6.60;99.90;;;;;;5054539;28;20199;-78
2022/03/10 07:08:12;;;;;;;0.50;0.40;;;6.80;99.90;;;;;;5045144;28;20258;-77
2022/03/10 07:10:39;;;;;;;0.50;0.40;;;7.00;99.90;;;;;;5036977;28;20658;-77
2022/03/10 07:13:08;;;;;;;0.50;0.40;;;7.20;99.90;;;;;;5041199;28;20206;-77
2022/03/10 07:15:36;;;;;;;1.20;1.20;;;7.50;97.90;;;;;;5047278;28;20237;-77
2022/03/10 07:18:05;;;;;;;0.50;0.50;;;7.70;95.30;;;;;;5035998;28;20215;-75
2022/03/10 07:20:32;;;;;;;7.88;3.17;;;7.90;94.70;;;;;;5035218;28;20217;-77
2022/03/10 07:22:58;;;;;;;0.50;0.40;;;8.10;93.60;;;;;;5036368;28;20204;-76
2022/03/10 07:25:25;;;;;;;5.40;1.52;;;8.30;90.90;;;;;;5037357;28;20201;-76
2022/03/10 07:27:52;;;;;;;1.20;1.20;;;8.50;85.10;;;;;;5035378;28;20227;-75
2022/03/10 07:30:19;;;;;;;1.85;1.70;;;8.70;80.40;;;;;;5035312;28;20231;-76
2022/03/10 07:32:47;;;;;;;2.05;1.60;;;8.90;77.20;;;;;;5036913;28;20226;-75
2022/03/10 07:35:14;;;;;;;3.35;3.15;;;9.40;76.60;;;;;;5035948;28;20197;-76
2022/03/10 07:37:40;;;;;;;1.98;1.52;;;9.60;72.00;;;;;;5035619;28;20201;-77
2022/03/10 07:40:08;;;;;;;0.50;0.40;;;9.60;71.10;;;;;;5035309;28;20682;-76
2022/03/10 07:42:35;;;;;;;3.53;3.33;;;9.80;69.70;;;;;;5035198;28;20205;-76
2022/03/10 07:45:03;;;;;;;0.50;0.40;;;10.30;66.10;;;;;;5034602;28;20720;-76
2022/03/10 07:47:29;;;;;;;0.50;0.50;;;10.70;65.30;;;;;;5034429;28;20198;-74
2022/03/10 07:49:58;;;;;;;1.45;1.35;;;11.30;63.50;;;;;;5033342;28;20197;-77
2022/03/10 07:52:25;;;;;;;1.63;1.52;;;11.90;60.00;;;;;;5034855;28;20197;-75
2022/03/10 07:54:51;;;;;;;1.63;0.93;;;12.50;57.80;;;;;;5033351;28;20281;-76
2022/03/10 07:57:18;;;;;;;1.30;1.17;;;13.40;57.70;;;;;;5033486;28;20206;-76
2022/03/10 07:59:45;;;;;;;0.87;0.87;;;14.30;56.20;;;;;;5032239;28;20832;-76
2022/03/10 08:02:11;;;;;;;0.50;0.40;;;15.00;54.10;;;;;;5032789;28;20445;-77
2022/03/10 08:04:38;;;;;;;0.93;0.93;;;15.50;52.20;;;;;;5031876;28;20438;-77
2022/03/10 08:07:06;;;;;;;3.73;3.43;;;16.10;51.20;;;;;;5033521;28;20438;-77
2022/03/10 08:09:34;;;;;;;1.73;1.63;;;16.40;48.90;;;;;;5032056;28;20462;-76
2022/03/10 08:12:00;;;;;;;11.13;3.60;;;16.60;47.90;;;;;;5032831;28;20438;-76
2022/03/10 08:14:27;;;;;;;0.50;0.40;;;16.00;47.10;;;;;;5033139;28;20845;-76
2022/03/10 08:16:54;;;;;;;4.07;3.67;;;16.80;47.40;;;;;;5032590;28;20449;-77
2022/03/10 08:19:21;;;;;;;1.57;1.47;;;17.80;45.50;;;;;;5032401;28;20530;-77
2022/03/10 08:21:48;;;;;;;5.60;2.30;;;18.40;44.30;;;;;;5032577;28;20445;-76
2022/03/10 08:24:16;;;;;;;6.20;2.50;;;18.30;43.80;;;;;;5032391;28;20448;-77
2022/03/10 08:26:43;;;;;;;5.33;1.80;;;18.10;43.20;;;;;;5032905;28;20452;-76
2022/03/10 08:29:10;;;;;;;0.50;0.40;;;18.80;43.90;;;;;;5032605;28;20463;-76
2022/03/10 08:31:37;;;;;;;0.73;0.73;;;19.20;42.60;;;;;;5032324;28;20437;-75
2022/03/10 08:34:04;;;;;;;4.43;1.57;;;19.90;43.00;;;;;;5032540;28;20445;-76
2022/03/10 08:36:31;;;;;;;1.47;1.10;;;21.20;41.80;;;;;;5034764;28;20449;-76
2022/03/10 08:38:58;;;;;;;1.00;1.00;;;22.40;40.90;;;;;;5033539;28;20527;-76
2022/03/10 08:41:26;;;;;;;1.80;0.80;;;23.00;40.10;;;;;;5032142;28;20983;-76
2022/03/10 08:43:53;;;;;;;0.67;0.67;;;23.50;38.60;;;;;;5032742;28;20967;-76
2022/03/10 08:46:19;;;;;;;1.13;1.13;;;23.50;38.50;;;;;;5032382;28;20443;-76
2022/03/10 08:48:46;;;;;;;0.50;0.50;;;23.40;37.70;;;;;;5031797;28;20461;-76
2022/03/10 08:51:13;;;;;;;0.60;0.60;;;23.40;37.90;;;;;;5031581;28;20521;-76
2022/03/10 08:53:39;;;;;;;1.57;1.47;;;23.80;37.80;;;;;;5032699;28;20442;-76
2022/03/10 08:56:09;;;;;;;3.27;2.23;;;23.90;36.60;;;;;;5031409;28;20434;-76
2022/03/10 08:58:37;;;;;;;1.73;1.60;;;23.50;36.30;;;;;;5032105;28;20970;-75
2022/03/10 09:01:04;;;;;;;1.07;0.80;;;22.50;36.70;;;;;;5030833;28;20469;-76
2022/03/10 09:03:30;;;;;;;3.73;2.20;;;22.10;37.70;;;;;;5030942;28;20434;-77
2022/03/10 09:05:57;;;;;;;0.50;0.40;;;22.40;37.10;;;;;;5032347;28;20437;-76
2022/03/10 09:08:24;;;;;;;0.63;0.63;;;23.00;37.90;;;;;;5032609;28;20466;-75
2022/03/10 09:10:51;;;;;;;3.17;2.97;;;22.10;37.00;;;;;;5030473;28;20723;-76
2022/03/10 09:13:17;;;;;;;0.50;0.40;;;22.20;37.10;;;;;;5031574;28;20438;-76
2022/03/10 09:15:46;;;;;;;1.00;1.00;;;22.50;37.70;;;;;;5031885;28;20446;-76
2022/03/10 09:18:14;;;;;;;0.93;0.93;;;22.90;37.70;;;;;;5031721;28;20970;-77
2022/03/10 09:20:40;;;;;;;4.47;4.13;;;23.20;37.10;;;;;;5031091;28;20527;-77
2022/03/10 09:23:08;;;;;;;1.33;1.23;;;24.10;37.20;;;;;;5031551;28;20455;-77
2022/03/10 09:25:35;;;;;;;1.07;1.07;;;24.30;36.10;;;;;;5031517;28;20438;-77
2022/03/10 09:28:01;;;;;;;1.53;1.43;;;24.40;37.80;;;;;;5031809;28;20476;-77
2022/03/10 09:30:28;;;;;;;0.70;0.70;;;24.90;37.60;;;;;;5031087;28;20437;-77
2022/03/10 09:32:57;;;;;;;4.47;1.70;;;25.80;35.60;;;;;;5031421;28;20438;-77
2022/03/10 09:35:25;;;;;;;0.50;0.40;;;25.10;34.90;;;;;;5031343;28;20480;-77
2022/03/10 09:37:52;;;;;;;2.93;1.93;;;25.10;36.20;;;;;;5031283;28;20484;-77
2022/03/10 09:40:19;;;;;;;3.67;3.37;;;24.90;35.50;;;;;;5030617;28;20963;-77
2022/03/10 09:42:48;;;;;;;2.67;2.47;;;23.70;36.00;;;;;;5031485;28;20947;-76
2022/03/10 09:45:16;;;;;;;3.23;2.10;;;24.00;36.40;;;;;;5031143;28;20446;-76
2022/03/10 09:47:44;;;;;;;0.60;0.60;;;24.50;35.80;;;;;;5031513;28;20950;-77
2022/03/10 09:50:14;;;;;;;1.53;0.60;;;25.40;35.60;;;;;;5031082;28;20525;-76
2022/03/10 09:52:42;;;;;;;1.80;1.70;;;25.90;34.60;;;;;;5031246;28;20812;-77
2022/03/10 09:55:10;;;;;;;2.17;2.07;;;25.90;34.90;;;;;;5031775;28;20793;-77
2022/03/10 09:57:39;;;;;;;0.60;0.40;;;25.20;34.60;;;;;;5030993;28;20497;-77
2022/03/10 10:00:07;;;;;;;2.43;1.37;;;25.10;34.90;;;;;;5030988;28;20485;-75
2022/03/10 10:02:34;;;;;;;1.00;0.93;;;24.30;34.50;;;;;;5031546;28;20466;-77
2022/03/10 10:05:01;;;;;;;8.87;4.30;;;24.20;34.80;;;;;;5030481;28;20981;-76
2022/03/10 10:07:31;;;;;;;2.00;1.90;;;22.40;35.10;;;;;;5034919;28;20438;-76
2022/03/10 10:09:59;;;;;;;7.93;3.50;;;21.50;35.10;;;;;;5030265;28;20462;-77
2022/03/10 10:12:28;;;;;;;0.60;0.47;;;21.10;35.50;;;;;;5030612;28;20442;-76
2022/03/10 10:14:55;;;;;;;0.90;0.90;;;21.20;37.20;;;;;;5031401;28;20488;-78
2022/03/10 10:17:27;;;;;;;2.53;2.33;;;22.00;36.20;;;;;;5031173;28;20801;-77
2022/03/10 10:19:57;;;;;;;1.83;1.73;;;21.70;35.80;;;;;;5030367;28;20480;-77
2022/03/10 10:22:24;;;;;;;1.53;1.43;;;21.80;35.80;;;;;;5030988;28;20442;-77
2022/03/10 10:24:55;;;;;;;4.03;3.73;;;22.30;35.80;;;;;;5031954;28;20938;-76
2022/03/10 10:27:24;;;;;;;2.57;2.30;;;21.40;35.40;;;;;;5034927;28;20481;-77
2022/03/10 10:29:53;;;;;;;22.63;13.33;;;21.40;36.50;;;;;;5033544;28;20625;-76
2022/03/10 10:32:30;;;;;;;11.93;1.47;;;21.70;36.50;;;;;;5034640;28;20470;-77
2022/03/10 10:35:02;;;;;;;23.73;21.57;;;21.70;36.30;;;;;;5034757;28;20507;-76
2022/03/10 10:37:28;;;;;;;5.37;3.10;;;22.10;36.10;;;;;;5036346;28;20438;-77
2022/03/10 10:39:58;;;;;;;7.43;2.73;;;22.20;36.30;;;;;;5034569;28;20450;-78
2022/03/10 10:42:28;;;;;;;0.50;0.50;;;22.70;36.50;;;;;;5035474;28;20446;-77
2022/03/10 10:44:55;;;;;;;0.80;0.70;;;23.10;35.70;;;;;;5035900;28;20480;-77
2022/03/10 10:47:22;;;;;;;0.50;0.30;;;22.70;35.20;;;;;;5035065;28;20717;-76
2022/03/10 10:50:01;;;;;;;1.03;1.03;;;23.60;36.20;;;;;;5033570;28;20527;-76
2022/03/10 10:52:37;;;;;;;10.13;6.13;;;24.10;35.10;;;;;;5034482;28;20452;-77
2022/03/10 10:55:08;;;;;;;2.73;2.53;;;22.80;34.80;;;;;;5034863;28;20449;-76
2022/03/10 10:57:35;;;;;;;4.17;3.83;;;22.70;35.90;;;;;;5034899;28;20431;-76
2022/03/10 11:00:10;;;;;;;7.77;6.13;;;22.50;35.70;;;;;;5033243;28;20831;-76
2022/03/10 11:02:41;;;;;;;5.30;3.37;;;21.20;36.00;;;;;;5033878;28;20446;-76
2022/03/10 11:05:09;;;;;;;0.60;0.50;;;22.00;36.40;;;;;;5034646;28;20465;-77
2022/03/10 11:07:37;;;;;;;4.30;2.70;;;22.70;35.90;;;;;;5033911;28;20498;-77
2022/03/10 11:10:07;;;;;;;0.77;0.77;;;22.40;36.30;;;;;;5033379;28;20445;-76
2022/03/10 11:12:37;;;;;;;1.87;1.77;;;22.00;36.70;;;;;;5034045;28;20823;-77
2022/03/10 11:15:06;;;;;;;5.10;3.80;;;22.70;36.70;;;;;;5034228;28;20922;-77
2022/03/10 11:17:34;;;;;;;1.23;1.17;;;22.90;35.80;;;;;;5033533;28;20446;-76
2022/03/10 11:20:02;;;;;;;0.90;0.73;;;23.40;36.60;;;;;;5033700;28;20446;-77
2022/03/10 11:22:38;;;;;;;1.77;1.67;;;23.80;35.40;;;;;;5033403;28;21024;-77
2022/03/10 11:25:26;;;;;;;1.70;1.03;;;24.40;35.90;;;;;;5033337;28;20437;-77
2022/03/10 11:27:56;;;;;;;4.00;3.70;;;23.90;35.10;;;;;;5033337;28;20458;-77
2022/03/10 11:30:27;;;;;;;7.90;4.93;;;23.40;34.80;;;;;;5033280;28;20442;-77
2022/03/10 11:33:01;;;;;;;2.37;2.13;;;22.10;34.60;;;;;;5033790;28;20442;-76
2022/03/10 11:35:32;;;;;;;1.70;0.60;;;22.40;36.00;;;;;;5033694;28;20448;-76
2022/03/10 11:37:59;;;;;;;4.87;2.20;;;22.20;35.60;;;;;;5032855;28;20958;-77
2022/03/10 11:40:51;;;;;;;3.63;3.33;;;22.00;35.40;;;;;;5032881;28;20564;-76
2022/03/10 11:43:30;;;;;;;6.10;3.43;;;22.10;36.40;;;;;;5033334;28;20897;-77
2022/03/10 11:46:25;;;;;;;7.10;5.20;;;21.10;36.10;;;;;;5033579;28;20464;-76
2022/03/10 11:49:11;;;;;;;8.47;3.97;;;21.40;37.40;;;;;;4986813;28;20478;-76
2022/03/10 11:51:50;;;;;;;2.47;2.27;;;21.30;36.30;;;;;;5033276;28;20675;-75
2022/03/10 11:54:18;;;;;;;0.50;0.40;;;21.00;36.00;;;;;;5033149;28;20426;-76
2022/03/10 11:57:09;;;;;;;1.03;0.93;;;21.60;36.80;;;;;;5033169;28;20433;-76
2022/03/10 11:59:50;;;;;;;3.00;2.80;;;22.40;37.20;;;;;;5033026;28;20473;-75
2022/03/10 12:02:43;;;;;;;1.63;1.13;;;23.10;35.40;;;;;;5032399;28;20458;-76
2022/03/10 12:05:10;;;;;;;0.73;0.73;;;22.30;35.20;;;;;;5033417;28;20445;-77
2022/03/10 12:07:42;;;;;;;5.37;2.70;;;22.20;35.20;;;;;;5033212;28;20450;-77
2022/03/10 12:10:11;;;;;;;7.57;1.97;;;21.50;35.50;;;;;;5032973;28;20425;-78
2022/03/10 12:12:41;;;;;;;0.97;0.50;;;21.10;36.10;;;;;;5032799;28;20441;-76
2022/03/10 12:15:47;;;;;;;1.93;1.13;;;21.70;35.90;;;;;;5033071;28;20445;-77
2022/03/10 12:18:16;;;;;;;3.50;1.77;;;22.10;35.40;;;;;;5033895;28;20824;-77
2022/03/10 12:20:44;;;;;;;0.50;0.30;;;21.90;34.40;;;;;;5033011;28;20533;-77
2022/03/10 12:23:13;;;;;;;6.27;2.40;;;22.80;35.80;;;;;;5033998;28;20515;-75
2022/03/10 12:25:41;;;;;;;2.60;0.63;;;23.60;34.80;;;;;;5033721;28;20445;-77
2022/03/10 12:28:10;;;;;;;0.77;0.77;;;23.90;34.10;;;;;;5032972;28;20514;-76
2022/03/10 12:30:41;;;;;;;6.00;1.13;;;22.70;33.20;;;;;;5032270;28;20442;-76
2022/03/10 12:33:09;;;;;;;2.03;1.63;;;23.30;34.30;;;;;;5032989;28;20503;-77
2022/03/10 12:35:38;;;;;;;10.87;2.23;;;23.20;33.10;;;;;;5027311;28;20480;-76
2022/03/10 12:38:05;;;;;;;2.30;2.10;;;22.70;33.60;;;;;;5032396;28;20470;-76
2022/03/10 12:40:35;;;;;;;1.80;1.70;;;23.10;33.80;;;;;;5031861;28;20437;-76
2022/03/10 12:43:04;;;;;;;2.57;1.43;;;22.20;33.70;;;;;;5032598;28;20441;-77
2022/03/10 12:45:33;;;;;;;1.33;1.23;;;21.70;33.90;;;;;;5032110;28;20446;-77
2022/03/10 12:48:04;;;;;;;3.33;2.53;;;22.30;33.70;;;;;;5032330;28;20538;-76
2022/03/10 12:50:34;;;;;;;2.77;1.67;;;22.80;33.60;;;;;;5031978;28;20430;-76
2022/03/10 12:53:10;;;;;;;4.07;2.77;;;23.10;34.00;;;;;;5015335;28;20494;-77
2022/03/10 12:55:36;;;;;;;18.97;4.17;;;22.60;32.80;;;;;;5013006;28;20861;-77
2022/03/10 12:58:03;;;;;;;2.50;2.00;;;22.10;33.50;;;;;;5012579;28;20459;-77
2022/03/10 13:00:30;;;;;;;0.90;0.90;;;21.90;33.80;;;;;;5012301;28;20470;-77
2022/03/10 13:02:58;;;;;;;0.70;0.70;;;22.10;33.90;;;;;;5011480;28;20486;-76